sensor_id;sensor_type;location;lat;lon;timestamp;pressure;altitude;pressure_sealevel;temperature;humidity
35489;BME280;21602;55.670;37.578;2023-02-15T00:01:50;99444.53;;;-1.50;81.17
35489;BME280;21602;55.670;37.578;2023-02-15T00:04:19;99436.34;;;-1.47;80.97
35489;BME280;21602;55.670;37.578;2023-02-15T00:06:45;99431.44;;;-1.50;80.79
35489;BME280;21602;55.670;37.578;2023-02-15T00:09:11;99426.13;;;-1.59;81.67
35489;BME280;21602;55.670;37.578;2023-02-15T00:11:37;99438.25;;;-1.58;81.44
35489;BME280;21602;55.670;37.578;2023-02-15T00:16:34;99439.13;;;-1.49;81.58
35489;BME280;21602;55.670;37.578;2023-02-15T00:19:01;99438.41;;;-1.59;81.39
35489;BME280;21602;55.670;37.578;2023-02-15T00:21:32;99447.25;;;-1.60;82.04
35489;BME280;21602;55.670;37.578;2023-02-15T00:23:59;99435.13;;;-1.61;81.90
35489;BME280;21602;55.670;37.578;2023-02-15T00:26:25;99441.78;;;-1.67;82.15
35489;BME280;21602;55.670;37.578;2023-02-15T00:28:52;99434.63;;;-1.65;82.34
35489;BME280;21602;55.670;37.578;2023-02-15T00:31:19;99429.69;;;-1.68;82.64
35489;BME280;21602;55.670;37.578;2023-02-15T00:33:45;99442.09;;;-1.70;82.61
35489;BME280;21602;55.670;37.578;2023-02-15T00:36:11;99446.72;;;-1.64;82.17
35489;BME280;21602;55.670;37.578;2023-02-15T00:38:37;99434.91;;;-1.68;81.89
35489;BME280;21602;55.670;37.578;2023-02-15T00:41:05;99455.75;;;-1.58;81.84
35489;BME280;21602;55.670;37.578;2023-02-15T00:43:33;99442.22;;;-1.53;81.49
35489;BME280;21602;55.670;37.578;2023-02-15T00:46:01;99453.97;;;-1.58;81.41
35489;BME280;21602;55.670;37.578;2023-02-15T00:48:28;99452.47;;;-1.60;81.50
35489;BME280;21602;55.670;37.578;2023-02-15T00:50:56;99455.09;;;-1.60;81.99
35489;BME280;21602;55.670;37.578;2023-02-15T00:53:23;99444.75;;;-1.62;82.47
35489;BME280;21602;55.670;37.578;2023-02-15T00:55:49;99450.00;;;-1.62;81.95
35489;BME280;21602;55.670;37.578;2023-02-15T00:58:16;99443.94;;;-1.62;81.77
35489;BME280;21602;55.670;37.578;2023-02-15T01:00:44;99428.84;;;-1.68;82.29
35489;BME280;21602;55.670;37.578;2023-02-15T01:03:11;99444.50;;;-1.76;81.54
35489;BME280;21602;55.670;37.578;2023-02-15T01:05:37;99446.63;;;-1.80;82.01
35489;BME280;21602;55.670;37.578;2023-02-15T01:08:03;99445.19;;;-1.74;82.30
35489;BME280;21602;55.670;37.578;2023-02-15T01:10:29;99457.81;;;-1.70;81.69
35489;BME280;21602;55.670;37.578;2023-02-15T01:12:56;99470.22;;;-1.72;81.38
35489;BME280;21602;55.670;37.578;2023-02-15T01:15:23;99453.56;;;-1.71;81.92
35489;BME280;21602;55.670;37.578;2023-02-15T01:17:49;99442.03;;;-1.78;81.62
35489;BME280;21602;55.670;37.578;2023-02-15T01:20:23;99459.44;;;-1.69;81.83
35489;BME280;21602;55.670;37.578;2023-02-15T01:22:49;99474.72;;;-1.82;81.67
35489;BME280;21602;55.670;37.578;2023-02-15T01:25:20;99454.84;;;-1.75;82.08
35489;BME280;21602;55.670;37.578;2023-02-15T01:27:47;99455.03;;;-1.68;81.20
35489;BME280;21602;55.670;37.578;2023-02-15T01:30:15;99467.97;;;-1.67;81.44
35489;BME280;21602;55.670;37.578;2023-02-15T01:32:41;99471.56;;;-1.68;80.98
35489;BME280;21602;55.670;37.578;2023-02-15T01:35:08;99469.38;;;-1.72;80.77
35489;BME280;21602;55.670;37.578;2023-02-15T01:37:34;99459.84;;;-1.82;81.39
35489;BME280;21602;55.670;37.578;2023-02-15T01:40:02;99442.19;;;-1.79;81.07
35489;BME280;21602;55.670;37.578;2023-02-15T01:42:30;99439.81;;;-1.91;81.14
35489;BME280;21602;55.670;37.578;2023-02-15T01:45:43;99446.69;;;-1.90;81.12
35489;BME280;21602;55.670;37.578;2023-02-15T01:55:33;99482.19;;;-1.87;80.75
35489;BME280;21602;55.670;37.578;2023-02-15T01:58:01;99476.97;;;-1.87;81.21
35489;BME280;21602;55.670;37.578;2023-02-15T02:00:29;99480.84;;;-1.91;81.16
35489;BME280;21602;55.670;37.578;2023-02-15T02:02:56;99467.94;;;-1.93;81.51
35489;BME280;21602;55.670;37.578;2023-02-15T02:05:27;99485.09;;;-1.90;81.24
35489;BME280;21602;55.670;37.578;2023-02-15T02:07:56;99480.94;;;-1.83;80.88
35489;BME280;21602;55.670;37.578;2023-02-15T02:10:25;99508.38;;;-1.87;80.58
35489;BME280;21602;55.670;37.578;2023-02-15T02:12:54;99487.97;;;-1.84;80.09
35489;BME280;21602;55.670;37.578;2023-02-15T02:15:37;99473.06;;;-1.83;79.70
35489;BME280;21602;55.670;37.578;2023-02-15T02:18:41;99491.91;;;-1.79;79.42
35489;BME280;21602;55.670;37.578;2023-02-15T02:35:43;99494.38;;;-1.78;78.27
35489;BME280;21602;55.670;37.578;2023-02-15T02:43:40;99504.75;;;-1.86;77.49
35489;BME280;21602;55.670;37.578;2023-02-15T02:48:39;99489.22;;;-1.88;77.51
35489;BME280;21602;55.670;37.578;2023-02-15T02:51:05;99494.31;;;-1.86;77.35
35489;BME280;21602;55.670;37.578;2023-02-15T02:53:32;99507.25;;;-1.85;77.62
35489;BME280;21602;55.670;37.578;2023-02-15T02:56:04;99510.97;;;-1.87;77.42
35489;BME280;21602;55.670;37.578;2023-02-15T02:58:45;99502.22;;;-1.78;77.26
35489;BME280;21602;55.670;37.578;2023-02-15T03:01:40;99508.00;;;-1.74;77.17
35489;BME280;21602;55.670;37.578;2023-02-15T03:04:17;99501.56;;;-1.80;77.52
35489;BME280;21602;55.670;37.578;2023-02-15T03:07:01;99505.81;;;-1.79;77.55
35489;BME280;21602;55.670;37.578;2023-02-15T03:09:37;99512.78;;;-1.70;77.26
35489;BME280;21602;55.670;37.578;2023-02-15T03:12:20;99513.97;;;-1.64;77.15
35489;BME280;21602;55.670;37.578;2023-02-15T03:14:53;99504.03;;;-1.78;76.54
35489;BME280;21602;55.670;37.578;2023-02-15T03:17:23;99514.13;;;-1.84;76.40
35489;BME280;21602;55.670;37.578;2023-02-15T03:19:53;99517.84;;;-1.86;76.43
35489;BME280;21602;55.670;37.578;2023-02-15T03:22:34;99513.88;;;-1.90;76.71
35489;BME280;21602;55.670;37.578;2023-02-15T03:25:23;99521.53;;;-1.97;76.43
35489;BME280;21602;55.670;37.578;2023-02-15T03:27:54;99518.97;;;-2.07;76.53
35489;BME280;21602;55.670;37.578;2023-02-15T03:30:22;99514.84;;;-2.09;76.88
35489;BME280;21602;55.670;37.578;2023-02-15T03:32:49;99526.16;;;-2.09;76.76
35489;BME280;21602;55.670;37.578;2023-02-15T03:35:16;99517.88;;;-2.04;76.87
35489;BME280;21602;55.670;37.578;2023-02-15T03:37:47;99528.63;;;-2.07;76.36
35489;BME280;21602;55.670;37.578;2023-02-15T03:40:30;99512.16;;;-2.17;76.01
35489;BME280;21602;55.670;37.578;2023-02-15T03:43:29;99523.44;;;-2.17;76.43
35489;BME280;21602;55.670;37.578;2023-02-15T03:46:00;99519.56;;;-2.13;76.33
35489;BME280;21602;55.670;37.578;2023-02-15T03:48:39;99527.47;;;-2.22;76.18
35489;BME280;21602;55.670;37.578;2023-02-15T03:51:12;99531.47;;;-2.28;76.08
35489;BME280;21602;55.670;37.578;2023-02-15T03:54:00;99520.63;;;-2.33;76.77
35489;BME280;21602;55.670;37.578;2023-02-15T03:56:26;99517.75;;;-2.30;76.88
35489;BME280;21602;55.670;37.578;2023-02-15T03:58:52;99532.81;;;-2.42;77.34
35489;BME280;21602;55.670;37.578;2023-02-15T04:01:39;99523.41;;;-2.35;77.13
35489;BME280;21602;55.670;37.578;2023-02-15T04:04:39;99521.63;;;-2.34;77.47
35489;BME280;21602;55.670;37.578;2023-02-15T04:07:08;99534.31;;;-2.39;77.92
35489;BME280;21602;55.670;37.578;2023-02-15T04:09:34;99540.91;;;-2.35;78.33
35489;BME280;21602;55.670;37.578;2023-02-15T04:12:18;99545.75;;;-2.40;78.84
35489;BME280;21602;55.670;37.578;2023-02-15T04:14:44;99544.75;;;-2.39;78.89
35489;BME280;21602;55.670;37.578;2023-02-15T04:17:30;99544.22;;;-2.43;78.54
35489;BME280;21602;55.670;37.578;2023-02-15T04:19:56;99545.94;;;-2.51;78.58
35489;BME280;21602;55.670;37.578;2023-02-15T04:22:41;99548.44;;;-2.60;78.64
35489;BME280;21602;55.670;37.578;2023-02-15T04:25:25;99531.25;;;-2.62;78.31
35489;BME280;21602;55.670;37.578;2023-02-15T04:27:54;99540.28;;;-2.57;77.84
35489;BME280;21602;55.670;37.578;2023-02-15T04:30:23;99552.41;;;-2.55;77.73
35489;BME280;21602;55.670;37.578;2023-02-15T04:32:49;99547.91;;;-2.63;76.58
35489;BME280;21602;55.670;37.578;2023-02-15T04:35:15;99544.84;;;-2.59;76.49
35489;BME280;21602;55.670;37.578;2023-02-15T04:37:42;99550.09;;;-2.59;76.27
35489;BME280;21602;55.670;37.578;2023-02-15T04:40:10;99546.22;;;-2.54;76.32
35489;BME280;21602;55.670;37.578;2023-02-15T04:42:36;99552.97;;;-2.62;75.98
35489;BME280;21602;55.670;37.578;2023-02-15T04:45:02;99551.44;;;-2.54;76.07
35489;BME280;21602;55.670;37.578;2023-02-15T04:47:30;99559.13;;;-2.53;75.40
35489;BME280;21602;55.670;37.578;2023-02-15T04:49:56;99545.25;;;-2.53;74.73
35489;BME280;21602;55.670;37.578;2023-02-15T04:52:22;99518.72;;;-2.59;75.02
35489;BME280;21602;55.670;37.578;2023-02-15T04:54:47;99575.59;;;-2.70;74.87
35489;BME280;21602;55.670;37.578;2023-02-15T04:57:13;99552.91;;;-2.70;74.75
35489;BME280;21602;55.670;37.578;2023-02-15T04:59:40;99533.03;;;-2.63;74.80
35489;BME280;21602;55.670;37.578;2023-02-15T05:02:06;99548.72;;;-2.63;74.47
35489;BME280;21602;55.670;37.578;2023-02-15T05:04:32;99547.00;;;-2.81;74.75
35489;BME280;21602;55.670;37.578;2023-02-15T05:06:58;99556.50;;;-2.80;75.01
35489;BME280;21602;55.670;37.578;2023-02-15T05:09:24;99560.63;;;-2.78;75.01
35489;BME280;21602;55.670;37.578;2023-02-15T05:11:50;99568.31;;;-2.76;74.66
35489;BME280;21602;55.670;37.578;2023-02-15T05:14:42;99563.25;;;-2.88;74.76
35489;BME280;21602;55.670;37.578;2023-02-15T05:17:07;99565.06;;;-2.88;75.01
35489;BME280;21602;55.670;37.578;2023-02-15T05:19:33;99563.91;;;-2.76;75.04
35489;BME280;21602;55.670;37.578;2023-02-15T05:21:59;99578.28;;;-2.62;74.93
35489;BME280;21602;55.670;37.578;2023-02-15T05:24:25;99575.63;;;-2.52;74.73
35489;BME280;21602;55.670;37.578;2023-02-15T05:27:12;99593.00;;;-2.51;74.20
35489;BME280;21602;55.670;37.578;2023-02-15T05:29:56;99575.94;;;-2.55;74.55
35489;BME280;21602;55.670;37.578;2023-02-15T05:32:21;99584.06;;;-2.59;74.10
35489;BME280;21602;55.670;37.578;2023-02-15T05:34:47;99591.13;;;-2.69;74.62
35489;BME280;21602;55.670;37.578;2023-02-15T05:37:13;99569.44;;;-2.79;74.96
35489;BME280;21602;55.670;37.578;2023-02-15T05:39:39;99589.34;;;-2.78;74.84
35489;BME280;21602;55.670;37.578;2023-02-15T05:42:05;99591.84;;;-2.86;74.36
35489;BME280;21602;55.670;37.578;2023-02-15T05:44:31;99572.19;;;-2.90;74.39
35489;BME280;21602;55.670;37.578;2023-02-15T05:46:57;99585.13;;;-2.89;74.52
35489;BME280;21602;55.670;37.578;2023-02-15T05:49:23;99587.41;;;-2.76;74.83
35489;BME280;21602;55.670;37.578;2023-02-15T05:51:48;99593.88;;;-2.70;74.26
35489;BME280;21602;55.670;37.578;2023-02-15T05:54:15;99582.59;;;-2.71;73.98
35489;BME280;21602;55.670;37.578;2023-02-15T05:56:41;99587.41;;;-2.76;74.27
35489;BME280;21602;55.670;37.578;2023-02-15T05:59:07;99573.53;;;-2.76;74.34
35489;BME280;21602;55.670;37.578;2023-02-15T06:01:33;99590.88;;;-2.85;74.16
35489;BME280;21602;55.670;37.578;2023-02-15T06:04:00;99588.69;;;-2.80;74.36
35489;BME280;21602;55.670;37.578;2023-02-15T06:06:26;99601.34;;;-2.95;74.65
35489;BME280;21602;55.670;37.578;2023-02-15T06:08:51;99595.59;;;-2.98;75.18
35489;BME280;21602;55.670;37.578;2023-02-15T06:11:17;99575.22;;;-2.95;74.75
35489;BME280;21602;55.670;37.578;2023-02-15T06:13:43;99595.69;;;-2.80;74.65
35489;BME280;21602;55.670;37.578;2023-02-15T06:16:09;99602.41;;;-2.68;74.55
35489;BME280;21602;55.670;37.578;2023-02-15T06:18:35;99598.53;;;-2.64;73.96
35489;BME280;21602;55.670;37.578;2023-02-15T06:21:00;99602.94;;;-2.65;73.75
35489;BME280;21602;55.670;37.578;2023-02-15T06:23:26;99614.06;;;-2.63;74.00
35489;BME280;21602;55.670;37.578;2023-02-15T06:25:52;99608.84;;;-2.63;73.74
35489;BME280;21602;55.670;37.578;2023-02-15T06:28:18;99613.38;;;-2.55;74.02
35489;BME280;21602;55.670;37.578;2023-02-15T06:30:44;99619.16;;;-2.61;73.59
35489;BME280;21602;55.670;37.578;2023-02-15T06:33:10;99603.38;;;-2.69;73.60
35489;BME280;21602;55.670;37.578;2023-02-15T06:35:36;99622.88;;;-2.64;73.25
35489;BME280;21602;55.670;37.578;2023-02-15T06:38:01;99614.94;;;-2.81;73.06
35489;BME280;21602;55.670;37.578;2023-02-15T06:40:27;99622.41;;;-2.96;73.86
35489;BME280;21602;55.670;37.578;2023-02-15T06:42:53;99619.53;;;-3.03;73.87
35489;BME280;21602;55.670;37.578;2023-02-15T06:45:19;99617.47;;;-3.09;74.14
35489;BME280;21602;55.670;37.578;2023-02-15T06:47:45;99618.84;;;-3.05;74.17
35489;BME280;21602;55.670;37.578;2023-02-15T06:50:11;99618.72;;;-3.03;73.97
35489;BME280;21602;55.670;37.578;2023-02-15T06:52:37;99636.16;;;-3.04;73.72
35489;BME280;21602;55.670;37.578;2023-02-15T06:55:03;99611.53;;;-3.01;74.19
35489;BME280;21602;55.670;37.578;2023-02-15T06:57:30;99631.47;;;-3.00;74.07
35489;BME280;21602;55.670;37.578;2023-02-15T06:59:56;99620.19;;;-2.91;74.02
35489;BME280;21602;55.670;37.578;2023-02-15T07:02:23;99619.22;;;-2.90;73.44
35489;BME280;21602;55.670;37.578;2023-02-15T07:04:49;99626.94;;;-2.89;73.55
35489;BME280;21602;55.670;37.578;2023-02-15T07:07:15;99616.47;;;-2.79;73.05
35489;BME280;21602;55.670;37.578;2023-02-15T07:09:41;99630.22;;;-2.87;73.19
35489;BME280;21602;55.670;37.578;2023-02-15T07:12:07;99606.41;;;-2.74;73.05
35489;BME280;21602;55.670;37.578;2023-02-15T07:14:51;99625.75;;;-2.67;72.96
35489;BME280;21602;55.670;37.578;2023-02-15T07:17:17;99634.63;;;-2.87;73.17
35489;BME280;21602;55.670;37.578;2023-02-15T07:19:45;99625.97;;;-2.97;74.22
35489;BME280;21602;55.670;37.578;2023-02-15T07:22:10;99624.75;;;-2.93;74.46
35489;BME280;21602;55.670;37.578;2023-02-15T07:24:36;99623.91;;;-2.84;74.39
35489;BME280;21602;55.670;37.578;2023-02-15T07:27:02;99627.72;;;-2.78;74.48
35489;BME280;21602;55.670;37.578;2023-02-15T07:29:28;99631.97;;;-2.68;74.42
35489;BME280;21602;55.670;37.578;2023-02-15T07:31:54;99629.34;;;-2.68;75.24
35489;BME280;21602;55.670;37.578;2023-02-15T07:34:20;99634.97;;;-2.63;75.15
35489;BME280;21602;55.670;37.578;2023-02-15T07:36:46;99620.69;;;-2.68;76.00
35489;BME280;21602;55.670;37.578;2023-02-15T07:39:12;99630.84;;;-2.55;76.03
35489;BME280;21602;55.670;37.578;2023-02-15T07:41:38;99628.91;;;-2.53;75.62
35489;BME280;21602;55.670;37.578;2023-02-15T07:44:14;99634.31;;;-2.65;76.14
35489;BME280;21602;55.670;37.578;2023-02-15T07:46:40;99627.84;;;-2.61;75.78
35489;BME280;21602;55.670;37.578;2023-02-15T07:49:06;99627.03;;;-2.80;76.09
35489;BME280;21602;55.670;37.578;2023-02-15T07:51:32;99645.31;;;-2.80;76.37
35489;BME280;21602;55.670;37.578;2023-02-15T07:53:58;99627.19;;;-2.82;76.17
35489;BME280;21602;55.670;37.578;2023-02-15T07:56:24;99641.88;;;-2.81;75.84
35489;BME280;21602;55.670;37.578;2023-02-15T07:58:49;99647.03;;;-2.99;77.10
35489;BME280;21602;55.670;37.578;2023-02-15T08:03:47;99649.63;;;-2.89;76.66
35489;BME280;21602;55.670;37.578;2023-02-15T08:06:13;99643.44;;;-2.98;77.17
35489;BME280;21602;55.670;37.578;2023-02-15T08:08:40;99641.22;;;-2.93;76.11
35489;BME280;21602;55.670;37.578;2023-02-15T08:11:36;99656.75;;;-2.81;76.35
35489;BME280;21602;55.670;37.578;2023-02-15T08:16:41;99659.88;;;-2.68;75.51
35489;BME280;21602;55.670;37.578;2023-02-15T08:19:08;99649.97;;;-2.55;75.24
35489;BME280;21602;55.670;37.578;2023-02-15T08:21:37;99656.78;;;-2.44;74.62
35489;BME280;21602;55.670;37.578;2023-02-15T08:24:04;99654.31;;;-2.36;73.96
35489;BME280;21602;55.670;37.578;2023-02-15T08:26:31;99663.59;;;-2.24;73.89
35489;BME280;21602;55.670;37.578;2023-02-15T08:28:58;99661.69;;;-2.22;73.00
35489;BME280;21602;55.670;37.578;2023-02-15T08:31:24;99655.31;;;-2.19;72.77
35489;BME280;21602;55.670;37.578;2023-02-15T08:33:52;99661.91;;;-2.15;72.45
35489;BME280;21602;55.670;37.578;2023-02-15T08:36:20;99669.56;;;-2.32;71.60
35489;BME280;21602;55.670;37.578;2023-02-15T08:38:47;99688.94;;;-2.24;70.81
35489;BME280;21602;55.670;37.578;2023-02-15T08:41:26;99667.75;;;-2.31;71.28
35489;BME280;21602;55.670;37.578;2023-02-15T08:43:54;99676.97;;;-2.27;71.59
35489;BME280;21602;55.670;37.578;2023-02-15T08:46:22;99678.03;;;-2.20;72.10
35489;BME280;21602;55.670;37.578;2023-02-15T08:48:48;99682.75;;;-2.33;71.72
35489;BME280;21602;55.670;37.578;2023-02-15T08:51:19;99702.75;;;-2.42;71.65
35489;BME280;21602;55.670;37.578;2023-02-15T08:53:47;99689.66;;;-2.32;72.60
35489;BME280;21602;55.670;37.578;2023-02-15T08:56:18;99685.78;;;-2.28;72.50
35489;BME280;21602;55.670;37.578;2023-02-15T08:58:45;99698.69;;;-2.17;72.65
35489;BME280;21602;55.670;37.578;2023-02-15T09:01:13;99684.22;;;-2.11;72.58
35489;BME280;21602;55.670;37.578;2023-02-15T09:03:44;99674.84;;;-2.04;72.16
35489;BME280;21602;55.670;37.578;2023-02-15T09:06:11;99694.63;;;-2.01;71.78
35489;BME280;21602;55.670;37.578;2023-02-15T09:08:37;99680.88;;;-2.03;71.15
35489;BME280;21602;55.670;37.578;2023-02-15T09:11:11;99690.09;;;-2.09;70.94
35489;BME280;21602;55.670;37.578;2023-02-15T09:13:38;99687.00;;;-2.22;71.46
35489;BME280;21602;55.670;37.578;2023-02-15T09:16:07;99683.56;;;-2.23;71.96
35489;BME280;21602;55.670;37.578;2023-02-15T09:18:35;99681.75;;;-2.13;71.80
35489;BME280;21602;55.670;37.578;2023-02-15T09:21:29;99689.28;;;-2.10;71.42
35489;BME280;21602;55.670;37.578;2023-02-15T09:24:00;99678.34;;;-2.23;71.25
35489;BME280;21602;55.670;37.578;2023-02-15T09:26:28;99681.59;;;-2.11;71.28
35489;BME280;21602;55.670;37.578;2023-02-15T09:28:56;99675.38;;;-2.10;71.48
35489;BME280;21602;55.670;37.578;2023-02-15T09:31:23;99684.59;;;-2.06;71.42
35489;BME280;21602;55.670;37.578;2023-02-15T09:33:50;99684.63;;;-2.16;72.00
35489;BME280;21602;55.670;37.578;2023-02-15T09:36:27;99689.47;;;-2.21;72.24
35489;BME280;21602;55.670;37.578;2023-02-15T09:38:57;99693.16;;;-2.14;72.30
35489;BME280;21602;55.670;37.578;2023-02-15T09:50:13;99704.28;;;-2.02;70.64
35489;BME280;21602;55.670;37.578;2023-02-15T09:58:35;99691.34;;;-2.03;70.47
35489;BME280;21602;55.670;37.578;2023-02-15T10:01:42;99701.63;;;-2.29;71.50
35489;BME280;21602;55.670;37.578;2023-02-15T10:10:06;99710.63;;;-2.14;70.30
35489;BME280;21602;55.670;37.578;2023-02-15T10:15:44;99716.81;;;-2.06;71.78
35489;BME280;21602;55.670;37.578;2023-02-15T10:21:28;99719.34;;;-1.86;71.04
35489;BME280;21602;55.670;37.578;2023-02-15T10:26:48;99713.84;;;-1.83;71.18
35489;BME280;21602;55.670;37.578;2023-02-15T10:29:33;99723.22;;;-1.90;71.20
35489;BME280;21602;55.670;37.578;2023-02-15T10:35:30;99729.91;;;-1.78;71.29
35489;BME280;21602;55.670;37.578;2023-02-15T10:48:45;99745.31;;;-1.47;71.31
35489;BME280;21602;55.670;37.578;2023-02-15T10:54:53;99748.44;;;-1.89;71.08
35489;BME280;21602;55.670;37.578;2023-02-15T11:07:40;99754.16;;;-1.76;70.36
35489;BME280;21602;55.670;37.578;2023-02-15T11:12:42;99763.22;;;-1.70;69.86
35489;BME280;21602;55.670;37.578;2023-02-15T11:15:23;99761.59;;;-1.81;70.04
35489;BME280;21602;55.670;37.578;2023-02-15T11:18:03;99760.03;;;-2.01;70.36
35489;BME280;21602;55.670;37.578;2023-02-15T11:23:25;99760.88;;;-2.11;71.38
35489;BME280;21602;55.670;37.578;2023-02-15T11:26:02;99770.06;;;-1.97;71.62
35489;BME280;21602;55.670;37.578;2023-02-15T11:28:36;99770.03;;;-1.87;71.24
35489;BME280;21602;55.670;37.578;2023-02-15T11:31:22;99771.41;;;-1.83;70.97
35489;BME280;21602;55.670;37.578;2023-02-15T11:33:55;99777.63;;;-1.84;70.97
35489;BME280;21602;55.670;37.578;2023-02-15T11:36:33;99783.81;;;-1.85;71.16
35489;BME280;21602;55.670;37.578;2023-02-15T11:39:09;99787.41;;;-1.96;71.57
35489;BME280;21602;55.670;37.578;2023-02-15T11:41:38;99789.59;;;-1.91;71.37
35489;BME280;21602;55.670;37.578;2023-02-15T11:44:19;99768.31;;;-2.06;71.40
35489;BME280;21602;55.670;37.578;2023-02-15T11:46:47;99790.91;;;-2.15;71.79
35489;BME280;21602;55.670;37.578;2023-02-15T11:51:49;99786.06;;;-2.10;71.78
35489;BME280;21602;55.670;37.578;2023-02-15T11:54:21;99795.28;;;-2.06;71.61
35489;BME280;21602;55.670;37.578;2023-02-15T11:56:49;99798.50;;;-2.21;71.73
35489;BME280;21602;55.670;37.578;2023-02-15T11:59:27;99795.19;;;-2.23;72.18
35489;BME280;21602;55.670;37.578;2023-02-15T12:01:53;99803.31;;;-2.26;72.29
35489;BME280;21602;55.670;37.578;2023-02-15T12:04:36;99805.78;;;-2.25;71.77
35489;BME280;21602;55.670;37.578;2023-02-15T12:07:23;99812.53;;;-2.22;71.54
35489;BME280;21602;55.670;37.578;2023-02-15T12:10:26;99802.34;;;-2.25;71.40
35489;BME280;21602;55.670;37.578;2023-02-15T12:15:38;99810.59;;;-2.11;72.21
35489;BME280;21602;55.670;37.578;2023-02-15T12:20:51;99815.78;;;-1.91;72.02
35489;BME280;21602;55.670;37.578;2023-02-15T12:23:17;99825.41;;;-1.92;71.75
35489;BME280;21602;55.670;37.578;2023-02-15T12:25:55;99817.88;;;-2.04;71.75
35489;BME280;21602;55.670;37.578;2023-02-15T12:28:24;99821.44;;;-2.06;71.54
35489;BME280;21602;55.670;37.578;2023-02-15T12:30:54;99827.50;;;-2.05;71.28
35489;BME280;21602;55.670;37.578;2023-02-15T12:36:11;99832.84;;;-1.87;71.68
35489;BME280;21602;55.670;37.578;2023-02-15T12:38:38;99836.72;;;-1.91;71.98
35489;BME280;21602;55.670;37.578;2023-02-15T12:41:21;99836.06;;;-2.03;72.54
35489;BME280;21602;55.670;37.578;2023-02-15T12:44:03;99836.16;;;-1.95;72.06
35489;BME280;21602;55.670;37.578;2023-02-15T12:46:29;99843.88;;;-1.93;71.15
35489;BME280;21602;55.670;37.578;2023-02-15T12:54:26;99879.13;;;-1.88;69.35
35489;BME280;21602;55.670;37.578;2023-02-15T12:56:54;99856.56;;;-1.98;68.79
35489;BME280;21602;55.670;37.578;2023-02-15T12:59:20;99864.69;;;-2.01;68.87
35489;BME280;21602;55.670;37.578;2023-02-15T13:01:47;99865.78;;;-1.94;68.80
35489;BME280;21602;55.670;37.578;2023-02-15T13:06:50;99878.31;;;-1.88;68.56
35489;BME280;21602;55.670;37.578;2023-02-15T13:09:46;99884.09;;;-1.85;68.31
35489;BME280;21602;55.670;37.578;2023-02-15T13:12:28;99885.44;;;-1.90;67.66
35489;BME280;21602;55.670;37.578;2023-02-15T13:14:59;99879.97;;;-2.07;67.36
35489;BME280;21602;55.670;37.578;2023-02-15T13:17:31;99899.13;;;-2.06;67.66
35489;BME280;21602;55.670;37.578;2023-02-15T13:20:20;99880.53;;;-2.03;67.65
35489;BME280;21602;55.670;37.578;2023-02-15T13:22:50;99884.53;;;-2.09;67.49
35489;BME280;21602;55.670;37.578;2023-02-15T13:25:18;99899.69;;;-2.12;67.87
35489;BME280;21602;55.670;37.578;2023-02-15T13:28:01;99895.81;;;-2.18;67.87
35489;BME280;21602;55.670;37.578;2023-02-15T13:30:35;99891.28;;;-2.25;68.17
35489;BME280;21602;55.670;37.578;2023-02-15T13:33:14;99900.34;;;-2.29;68.29
35489;BME280;21602;55.670;37.578;2023-02-15T13:38:49;99914.97;;;-2.27;68.85
35489;BME280;21602;55.670;37.578;2023-02-15T13:41:33;99905.16;;;-2.35;69.37
35489;BME280;21602;55.670;37.578;2023-02-15T13:44:18;99908.75;;;-2.36;69.70
35489;BME280;21602;55.670;37.578;2023-02-15T13:52:22;99913.56;;;-2.02;69.39
35489;BME280;21602;55.670;37.578;2023-02-15T13:58:17;99917.69;;;-2.19;68.89
35489;BME280;21602;55.670;37.578;2023-02-15T14:14:29;99931.19;;;-2.33;69.45
35489;BME280;21602;55.670;37.578;2023-02-15T14:17:23;99926.50;;;-2.39;69.32
35489;BME280;21602;55.670;37.578;2023-02-15T14:19:58;99942.19;;;-2.39;69.53
35489;BME280;21602;55.670;37.578;2023-02-15T14:22:37;99944.81;;;-2.39;69.55
35489;BME280;21602;55.670;37.578;2023-02-15T14:28:14;99942.75;;;-2.26;69.27
35489;BME280;21602;55.670;37.578;2023-02-15T14:30:47;99941.38;;;-2.20;69.31
35489;BME280;21602;55.670;37.578;2023-02-15T14:35:40;99948.41;;;-2.30;70.07
35489;BME280;21602;55.670;37.578;2023-02-15T14:38:13;99953.88;;;-2.34;70.26
35489;BME280;21602;55.670;37.578;2023-02-15T14:41:04;99965.06;;;-2.32;70.57
35489;BME280;21602;55.670;37.578;2023-02-15T14:43:54;99944.56;;;-2.26;70.65
35489;BME280;21602;55.670;37.578;2023-02-15T14:46:41;99958.19;;;-2.23;70.11
35489;BME280;21602;55.670;37.578;2023-02-15T14:49:38;99961.06;;;-2.26;69.81
35489;BME280;21602;55.670;37.578;2023-02-15T14:52:07;99960.09;;;-2.25;70.14
35489;BME280;21602;55.670;37.578;2023-02-15T15:02:18;99960.66;;;-2.02;69.79
35489;BME280;21602;55.670;37.578;2023-02-15T15:07:27;99962.97;;;-2.28;70.89
35489;BME280;21602;55.670;37.578;2023-02-15T15:14:58;99970.13;;;-2.49;71.58
35489;BME280;21602;55.670;37.578;2023-02-15T15:22:48;99982.63;;;-2.43;71.89
35489;BME280;21602;55.670;37.578;2023-02-15T15:25:44;99993.13;;;-2.34;71.72
35489;BME280;21602;55.670;37.578;2023-02-15T15:39:21;100009.03;;;-2.56;71.73
35489;BME280;21602;55.670;37.578;2023-02-15T15:42:13;99991.97;;;-2.60;71.75
35489;BME280;21602;55.670;37.578;2023-02-15T15:50:52;99999.50;;;-2.67;72.57
35489;BME280;21602;55.670;37.578;2023-02-15T15:53:22;100004.22;;;-2.61;72.40
35489;BME280;21602;55.670;37.578;2023-02-15T15:55:51;100009.44;;;-2.61;72.52
35489;BME280;21602;55.670;37.578;2023-02-15T15:58:19;100012.06;;;-2.61;72.82
35489;BME280;21602;55.670;37.578;2023-02-15T16:00:49;100023.06;;;-2.57;72.93
35489;BME280;21602;55.670;37.578;2023-02-15T16:03:25;100013.97;;;-2.63;72.96
35489;BME280;21602;55.670;37.578;2023-02-15T16:05:52;100025.13;;;-2.61;72.79
35489;BME280;21602;55.670;37.578;2023-02-15T16:08:38;100021.00;;;-2.53;72.29
35489;BME280;21602;55.670;37.578;2023-02-15T16:11:15;100030.50;;;-2.52;71.71
35489;BME280;21602;55.670;37.578;2023-02-15T16:13:42;100040.41;;;-2.56;71.79
35489;BME280;21602;55.670;37.578;2023-02-15T16:16:12;100026.47;;;-2.66;71.58
35489;BME280;21602;55.670;37.578;2023-02-15T16:18:45;100033.63;;;-2.68;71.20
35489;BME280;21602;55.670;37.578;2023-02-15T16:21:25;100029.66;;;-2.63;70.91